მსუბუქი წვიმა, ელჭექით
მსუბუქი წვიმა, ელჭექით
მსუბუქი წვიმა, ელჭექით
ნაწილობრივ მოღრუბლული ალაგ-ალაგ მიმოფანტული ღრუბლებით
შერეული შხაპუნა წვიმით
მოღრუბლული მსუბუქ წვიმასთან ერთად
მოღრუბლული მსუბუქ წვიმასთან ერთად
(°C)
17°
17°
18°
18°
17°
17°
17°
17°
16°
16°
15°
15°
14°
14°
(°C)
16°
16°
16°
15°
14°
14°
13°
აჩა
ჩჩა
დსდ
ჩდ
დას.
სსდ
სსდ
(km/h)
9-13
8-20
7-18
7-13
6-11
6-11
5-11
(მმ)
1.1
0.5
0.2
0
1.8
0.2
0.2
(%)
73
58
57
56
68
53
48

მზის სიმაღლე

/ 46.5°
sun-icon
UV 2
05:25
20:57
კლებადი მთვარე (204°)
23:39
06:10

METAR ინსბრუკი (LOWI)-თვის

დრო პირობები ტემპერატურა/
ნამი
ქარი ხილვადობა ამინდი ღრუბლები წნევა ცვლილება დაუმუშავებელი
VFR 16°C / 11°C 70º variable 040º to 110º 10kt 9700m - Few Clouds 1700ft
Broken Clouds 6000ft
1017 Temporary: Showers Rain . LOWI 251320Z 07010KT 040V110 9999 FEW017 BKN060 16/11 Q1017 TEMPO SHRA
VFR 17°C / 9°C 4kt 9700m Light Showers Rain 3.00mm precipitation Few Clouds 2000ft
Scattered Clouds 4500ft
Broken Clouds 6000ft
1017 Temporary: Showers Rain . LOWI 251250Z VRB04KT 9999 -SHRA FEW020 SCT045 BKN060 17/09 Q1017 TEMPO SHRA
VFR 18°C / 10°C 270º variable 230º to 310º 6kt 9700m in the Vicinity Showers Few Clouds 2000ft
Scattered Clouds 4000ft
Broken Clouds 6500ft
1017 Temporary: Showers Rain . LOWI 251220Z 27006KT 230V310 9999 VCSH FEW020 SCT040 BKN065 18/10 Q1017 TEMPO SHRA
VFR 17°C / 10°C 280º variable 250º to 320º 7kt 9700m - Few Clouds 1500ft
Scattered Clouds 3000ft
Broken Clouds 8000ft
1017 Temporary: Showers Rain . LOWI 251150Z 28007KT 250V320 9999 FEW015 SCT030 BKN080 17/10 Q1017 TEMPO SHRA
VFR 16°C / 10°C 260º 6kt 9700m - Few Clouds 2000ft
Scattered Clouds 3000ft
Broken Clouds 7000ft
1017 Temporary: Showers Rain . LOWI 251120Z 26006KT 9999 FEW020 SCT030 BKN070 16/10 Q1017 TEMPO SHRA
VFR 17°C / 10°C 2kt 9700m - Scattered Clouds 2500ft
Scattered Clouds 4500ft
Broken Clouds 8000ft
1018 No Significant change LOWI 251050Z VRB02KT 9999 SCT025 SCT045 BKN080 17/10 Q1018 NOSIG
VFR 17°C / 11°C 100º variable 040º to 150º 5kt 9700m - Few Clouds 1500ft
Scattered Clouds 3000ft
Broken Clouds 5000ft
1018 No Significant change LOWI 251020Z 10005KT 040V150 9999 FEW015 SCT030 BKN050 17/11 Q1018 NOSIG
VFR 16°C / 11°C 4kt 9700m in the Vicinity Showers Few Clouds 1500ft
Scattered Clouds 2500ft
Broken Clouds 5500ft
1018 Temporary: Showers Rain . LOWI 250950Z VRB04KT 9999 VCSH FEW015 SCT025 BKN055 16/11 Q1018 TEMPO SHRA
VFR 15°C / 11°C 260º variable 230º to 300º 6kt 9700m - Few Clouds 1500ft
Scattered Clouds 3000ft
Broken Clouds 6000ft
1018 Temporary: Showers Rain . LOWI 250920Z 26006KT 230V300 9999 FEW015 SCT030 BKN060 15/11 Q1018 TEMPO SHRA
VFR 15°C / 10°C 2kt 9700m - Few Clouds 1000ft
Scattered Clouds 2000ft
Broken Clouds 5000ft
1018 Temporary: Showers Rain . LOWI 250850Z VRB02KT 9999 FEW010 SCT020 BKN050 15/10 Q1018 TEMPO SHRA
VFR 14°C / 10°C 2kt 9700m Light Showers Rain 3.00mm precipitation Few Clouds 1000ft
Scattered Clouds 2500ft
Broken Clouds 5000ft
1018 Temporary: Showers Rain . LOWI 250820Z VRB02KT 9999 -SHRA FEW010 SCT025 BKN050 14/10 Q1018 TEMPO SHRA
VFR 14°C / 10°C 260º variable 240º to 310º 3kt 9700m - Few Clouds 1500ft
Scattered Clouds 3000ft
Broken Clouds 5000ft
1018 No Significant change LOWI 250750Z 26003KT 240V310 9999 FEW015 SCT030 BKN050 14/10 Q1018 NOSIG
VFR 13°C / 10°C 280º variable 230º to 310º 3kt 9700m - Scattered Clouds 1500ft
Broken Clouds 3500ft
1018 No Significant change LOWI 250720Z 28003KT 230V310 9999 SCT015 BKN035 13/10 Q1018 NOSIG
MVFR 13°C / 10°C 270º variable 240º to 300º 4kt 9700m - Scattered Clouds 1500ft
Broken Clouds 3000ft
1018 No Significant change LOWI 250650Z 27004KT 240V300 9999 SCT015 BKN030 13/10 Q1018 NOSIG
MVFR 13°C / 11°C 280º 6kt 9700m - Scattered Clouds 1500ft
Broken Clouds 3000ft
1019 No Significant change LOWI 250620Z 28006KT 9999 SCT015 BKN030 13/11 Q1019 NOSIG
VFR 13°C / 11°C 1kt 9700m - Scattered Clouds 1500ft
Broken Clouds 3500ft
1019 No Significant change LOWI 250550Z VRB01KT 9999 SCT015 BKN035 13/11 Q1019 NOSIG
VFR 12°C / 11°C 2kt 9700m - Scattered Clouds 1500ft
Broken Clouds 3100ft
1019 No Significant change LOWI 250520Z VRB02KT 9999 SCT015 BKN031 12/11 Q1019 NOSIG
VFR 12°C / 11°C 2kt 9700m - Scattered Clouds 1500ft
Broken Clouds 3500ft
1019 No Significant change LOWI 250450Z VRB02KT 9999 SCT015 BKN035 12/11 Q1019 NOSIG
VFR 12°C / 11°C 250º 2kt 9700m - Scattered Clouds 1500ft
Broken Clouds 3500ft
1019 No Significant change LOWI 250420Z 25002KT 9999 SCT015 BKN035 12/11 Q1019 NOSIG
VFR 12°C / 11°C 270º variable 240º to 300º 3kt 9700m - Few Clouds 900ft
Scattered Clouds 1500ft
Broken Clouds 3500ft
1018 No Significant change LOWI 250350Z 27003KT 240V300 9999 FEW009 SCT015 BKN035 12/11 Q1018 NOSIG
VFR 12°C / 11°C 280º 6kt 9700m - Few Clouds 1000ft
Scattered Clouds 1500ft
Broken Clouds 3500ft
1018 No Significant change LOWI 250320Z 28006KT 9999 FEW010 SCT015 BKN035 12/11 Q1018 NOSIG
VFR 12°C / 11°C 280º 5kt 9700m - Few Clouds 1700ft
Broken Clouds 3200ft
1019 - LOWI 250250Z AUTO 28005KT 9999 FEW017 BKN032 12/11 Q1019
VFR 12°C / 10°C 280º 3kt 9700m - Few Clouds 3400ft
Broken Clouds 3600ft
1019 - LOWI 250220Z AUTO 28003KT 9999 FEW034 BKN036 12/10 Q1019
VFR 12°C / 10°C 200º 2kt 9700m - Few Clouds 2400ft
Broken Clouds 3400ft
1019 - LOWI 250150Z AUTO 20002KT 9999 FEW024 BKN034 12/10 Q1019

VFR

16°C / 11°C

[მეტი]
ქარი 70º variable 040º to 110º 10kt
ხილვადობა 9700m
ამინდი -
ღრუბლები Few Clouds 1700ft
Broken Clouds 6000ft
წნევა 1017
ცვლილება Temporary: Showers Rain .
დაუმუშავებელი LOWI 251320Z 07010KT 040V110 9999 FEW017 BKN060 16/11 Q1017 TEMPO SHRA

VFR

17°C / 9°C

[მეტი]
ქარი 4kt
ხილვადობა 9700m
ამინდი Light Showers Rain 3.00mm precipitation
ღრუბლები Few Clouds 2000ft
Scattered Clouds 4500ft
Broken Clouds 6000ft
წნევა 1017
ცვლილება Temporary: Showers Rain .
დაუმუშავებელი LOWI 251250Z VRB04KT 9999 -SHRA FEW020 SCT045 BKN060 17/09 Q1017 TEMPO SHRA

VFR

18°C / 10°C

[მეტი]
ქარი 270º variable 230º to 310º 6kt
ხილვადობა 9700m
ამინდი in the Vicinity Showers
ღრუბლები Few Clouds 2000ft
Scattered Clouds 4000ft
Broken Clouds 6500ft
წნევა 1017
ცვლილება Temporary: Showers Rain .
დაუმუშავებელი LOWI 251220Z 27006KT 230V310 9999 VCSH FEW020 SCT040 BKN065 18/10 Q1017 TEMPO SHRA

VFR

17°C / 10°C

[მეტი]
ქარი 280º variable 250º to 320º 7kt
ხილვადობა 9700m
ამინდი -
ღრუბლები Few Clouds 1500ft
Scattered Clouds 3000ft
Broken Clouds 8000ft
წნევა 1017
ცვლილება Temporary: Showers Rain .
დაუმუშავებელი LOWI 251150Z 28007KT 250V320 9999 FEW015 SCT030 BKN080 17/10 Q1017 TEMPO SHRA

VFR

16°C / 10°C

[მეტი]
ქარი 260º 6kt
ხილვადობა 9700m
ამინდი -
ღრუბლები Few Clouds 2000ft
Scattered Clouds 3000ft
Broken Clouds 7000ft
წნევა 1017
ცვლილება Temporary: Showers Rain .
დაუმუშავებელი LOWI 251120Z 26006KT 9999 FEW020 SCT030 BKN070 16/10 Q1017 TEMPO SHRA

VFR

17°C / 10°C

[მეტი]
ქარი 2kt
ხილვადობა 9700m
ამინდი -
ღრუბლები Scattered Clouds 2500ft
Scattered Clouds 4500ft
Broken Clouds 8000ft
წნევა 1018
ცვლილება No Significant change
დაუმუშავებელი LOWI 251050Z VRB02KT 9999 SCT025 SCT045 BKN080 17/10 Q1018 NOSIG

VFR

17°C / 11°C

[მეტი]
ქარი 100º variable 040º to 150º 5kt
ხილვადობა 9700m
ამინდი -
ღრუბლები Few Clouds 1500ft
Scattered Clouds 3000ft
Broken Clouds 5000ft
წნევა 1018
ცვლილება No Significant change
დაუმუშავებელი LOWI 251020Z 10005KT 040V150 9999 FEW015 SCT030 BKN050 17/11 Q1018 NOSIG

VFR

16°C / 11°C

[მეტი]
ქარი 4kt
ხილვადობა 9700m
ამინდი in the Vicinity Showers
ღრუბლები Few Clouds 1500ft
Scattered Clouds 2500ft
Broken Clouds 5500ft
წნევა 1018
ცვლილება Temporary: Showers Rain .
დაუმუშავებელი LOWI 250950Z VRB04KT 9999 VCSH FEW015 SCT025 BKN055 16/11 Q1018 TEMPO SHRA

VFR

15°C / 11°C

[მეტი]
ქარი 260º variable 230º to 300º 6kt
ხილვადობა 9700m
ამინდი -
ღრუბლები Few Clouds 1500ft
Scattered Clouds 3000ft
Broken Clouds 6000ft
წნევა 1018
ცვლილება Temporary: Showers Rain .
დაუმუშავებელი LOWI 250920Z 26006KT 230V300 9999 FEW015 SCT030 BKN060 15/11 Q1018 TEMPO SHRA

VFR

15°C / 10°C

[მეტი]
ქარი 2kt
ხილვადობა 9700m
ამინდი -
ღრუბლები Few Clouds 1000ft
Scattered Clouds 2000ft
Broken Clouds 5000ft
წნევა 1018
ცვლილება Temporary: Showers Rain .
დაუმუშავებელი LOWI 250850Z VRB02KT 9999 FEW010 SCT020 BKN050 15/10 Q1018 TEMPO SHRA

VFR

14°C / 10°C

[მეტი]
ქარი 2kt
ხილვადობა 9700m
ამინდი Light Showers Rain 3.00mm precipitation
ღრუბლები Few Clouds 1000ft
Scattered Clouds 2500ft
Broken Clouds 5000ft
წნევა 1018
ცვლილება Temporary: Showers Rain .
დაუმუშავებელი LOWI 250820Z VRB02KT 9999 -SHRA FEW010 SCT025 BKN050 14/10 Q1018 TEMPO SHRA

VFR

14°C / 10°C

[მეტი]
ქარი 260º variable 240º to 310º 3kt
ხილვადობა 9700m
ამინდი -
ღრუბლები Few Clouds 1500ft
Scattered Clouds 3000ft
Broken Clouds 5000ft
წნევა 1018
ცვლილება No Significant change
დაუმუშავებელი LOWI 250750Z 26003KT 240V310 9999 FEW015 SCT030 BKN050 14/10 Q1018 NOSIG

VFR

13°C / 10°C

[მეტი]
ქარი 280º variable 230º to 310º 3kt
ხილვადობა 9700m
ამინდი -
ღრუბლები Scattered Clouds 1500ft
Broken Clouds 3500ft
წნევა 1018
ცვლილება No Significant change
დაუმუშავებელი LOWI 250720Z 28003KT 230V310 9999 SCT015 BKN035 13/10 Q1018 NOSIG

MVFR

13°C / 10°C

[მეტი]
ქარი 270º variable 240º to 300º 4kt
ხილვადობა 9700m
ამინდი -
ღრუბლები Scattered Clouds 1500ft
Broken Clouds 3000ft
წნევა 1018
ცვლილება No Significant change
დაუმუშავებელი LOWI 250650Z 27004KT 240V300 9999 SCT015 BKN030 13/10 Q1018 NOSIG

MVFR

13°C / 11°C

[მეტი]
ქარი 280º 6kt
ხილვადობა 9700m
ამინდი -
ღრუბლები Scattered Clouds 1500ft
Broken Clouds 3000ft
წნევა 1019
ცვლილება No Significant change
დაუმუშავებელი LOWI 250620Z 28006KT 9999 SCT015 BKN030 13/11 Q1019 NOSIG

VFR

13°C / 11°C

[მეტი]
ქარი 1kt
ხილვადობა 9700m
ამინდი -
ღრუბლები Scattered Clouds 1500ft
Broken Clouds 3500ft
წნევა 1019
ცვლილება No Significant change
დაუმუშავებელი LOWI 250550Z VRB01KT 9999 SCT015 BKN035 13/11 Q1019 NOSIG

VFR

12°C / 11°C

[მეტი]
ქარი 2kt
ხილვადობა 9700m
ამინდი -
ღრუბლები Scattered Clouds 1500ft
Broken Clouds 3100ft
წნევა 1019
ცვლილება No Significant change
დაუმუშავებელი LOWI 250520Z VRB02KT 9999 SCT015 BKN031 12/11 Q1019 NOSIG

VFR

12°C / 11°C

[მეტი]
ქარი 2kt
ხილვადობა 9700m
ამინდი -
ღრუბლები Scattered Clouds 1500ft
Broken Clouds 3500ft
წნევა 1019
ცვლილება No Significant change
დაუმუშავებელი LOWI 250450Z VRB02KT 9999 SCT015 BKN035 12/11 Q1019 NOSIG

VFR

12°C / 11°C

[მეტი]
ქარი 250º 2kt
ხილვადობა 9700m
ამინდი -
ღრუბლები Scattered Clouds 1500ft
Broken Clouds 3500ft
წნევა 1019
ცვლილება No Significant change
დაუმუშავებელი LOWI 250420Z 25002KT 9999 SCT015 BKN035 12/11 Q1019 NOSIG

VFR

12°C / 11°C

[მეტი]
ქარი 270º variable 240º to 300º 3kt
ხილვადობა 9700m
ამინდი -
ღრუბლები Few Clouds 900ft
Scattered Clouds 1500ft
Broken Clouds 3500ft
წნევა 1018
ცვლილება No Significant change
დაუმუშავებელი LOWI 250350Z 27003KT 240V300 9999 FEW009 SCT015 BKN035 12/11 Q1018 NOSIG

VFR

12°C / 11°C

[მეტი]
ქარი 280º 6kt
ხილვადობა 9700m
ამინდი -
ღრუბლები Few Clouds 1000ft
Scattered Clouds 1500ft
Broken Clouds 3500ft
წნევა 1018
ცვლილება No Significant change
დაუმუშავებელი LOWI 250320Z 28006KT 9999 FEW010 SCT015 BKN035 12/11 Q1018 NOSIG

VFR

12°C / 11°C

[მეტი]
ქარი 280º 5kt
ხილვადობა 9700m
ამინდი -
ღრუბლები Few Clouds 1700ft
Broken Clouds 3200ft
წნევა 1019
ცვლილება -
დაუმუშავებელი LOWI 250250Z AUTO 28005KT 9999 FEW017 BKN032 12/11 Q1019

VFR

12°C / 10°C

[მეტი]
ქარი 280º 3kt
ხილვადობა 9700m
ამინდი -
ღრუბლები Few Clouds 3400ft
Broken Clouds 3600ft
წნევა 1019
ცვლილება -
დაუმუშავებელი LOWI 250220Z AUTO 28003KT 9999 FEW034 BKN036 12/10 Q1019

VFR

12°C / 10°C

[მეტი]
ქარი 200º 2kt
ხილვადობა 9700m
ამინდი -
ღრუბლები Few Clouds 2400ft
Broken Clouds 3400ft
წნევა 1019
ცვლილება -
დაუმუშავებელი LOWI 250150Z AUTO 20002KT 9999 FEW024 BKN034 12/10 Q1019

TAF ინსბრუკი (LOWI)-თვის

From till


Maximum Temperature 23ºC on . Minimum Temperature 9ºC on .
From till Wind 90º 7kt. Visibility 9700m. Scattered Clouds 3000ft. Scattered Clouds 7000ft.
Temporarly from till Showers Rain . Few Clouds 3000ft. Broken Clouds 5000ft.
With 40% probability, from till Wind 15kt. Gust 30kt. Thunderstorm Rain .
Becoming from till
Becoming from till

დაუმუშავებელი: TAF LOWI 251115Z 2512/2612 09007KT 9999 SCT030 SCT070 TX23/2612Z TN09/2604Z TEMPO 2512/2522 SHRA FEW030CB BKN050 PROB40 2512/2520 VRB15G30KT TSRA BECMG 2518/2520 VRB03KT BECMG 2609/2611 09008KT

რადარის და ნალექების მაჩვენებელი ინსბრუკი -თვის

გაწურეთ
Მსუბუქი
ზომიერი
Მძიმე
Ძალიან მძიმე
სეტყვა

მდებარეობის მარკერი მოთავსებულია ინსბრუკი -ზე. ეს ანიმაცია აჩვენებს ნალექის რადარს არჩეული დროის დიაპაზონისთვის, ასევე 2h პროგნოზს. ნარინჯისფერი ჯვრები მიუთითებს ელვაზე. nowcast.de-ის მიერ მოწოდებული მონაცემები (ხელმისაწვდომია აშშ-ში, ევროპაში, ავსტრალიაში). წვიმა ან მსუბუქი თოვლი შეიძლება იყოს უხილავი რადარისთვის. ნალექის ინტენსივობა არის ფერადი კოდირებული, დაწყებული ფირუზისფერიდან წითამდე.

მიმდინარე სატელიტისა და წვიმის სურათები ინსბრუკი-თვის, ავსტრია

ლოკაციის მარკერი დაყენებყლია ინსბრუკიზე. [მეტი]

რეალურ დროში სატელიტური სურათი აერთიანებს ხილულ სინათლეს დღისით ღამის განმავლობაში ინფრაწითელ გამოსხივებასთან ერთად. ღამით, სურათი არ არის მუქი, რადგან ინფრაწითელ გამოსხივებას შეუძლია ტემპერატურის განსხვავებების დადგენა. სამწუხაროდ, დაბალი ღრუბლები და ნისლი ძნელია განასხვავონ მიწის ტემპერატურისგან და, შესაბამისად, ისინი შეიძლება თითქმის არ ჩანდეს ღამით. Meteosat სატელიტური გამოსახულება ევროპისთვის ახლდება რეალურ დროში ყოველ 5 წუთში. GOES-16/GOES-17 (ჩრდილოეთი და სამხრეთ ამერიკა) და ჰიმავარი (აზია) გამოსახულებები ახლდება ყოველ 10 წუთში.

ნალექი შეფასებულია რადარებიდან და თანამგზავრებიდან. სატელიტების ნალექის შეფასებები ღამით ნაკლებად ზუსტია, ვიდრე დღისით.

© 2024 meteoblue, NOAA Satellites GOES-16 and EUMETSAT. ელვის შესახებ მონაცემები მოწოდებული nowcast მიერ.

თავში დაბრუნება
×
გამარჯობა,
როგორც ჩანს, რეკლამის ბლოკერს იყენებთ.

რეკლამა აუცილებელია ჩვენი უფასო ვებსაიტის უნიკალური დეტალებითა და სიზუსტით შესანარჩუნებლად.

გთხოვთ თეთრი სია www.meteoblue.com თქვენს რეკლამის ბლოკერზე ან განიხილოთ ჩვენი ერთ-ერთი პროდუქტის შეძენა:

უკვე გაქვთ გამოწერა?
შემდეგ გთხოვთ შედით სისტემაში.